sensor_id;sensor_type;location;lat;lon;timestamp;temperature;humidity
10968;DHT22;5536;49.602;10.980;2022-12-29T00:01:38;6.80;99.90
10968;DHT22;5536;49.602;10.980;2022-12-29T00:07:09;6.90;99.90
10968;DHT22;5536;49.602;10.980;2022-12-29T00:07:34;6.90;99.90
10968;DHT22;5536;49.602;10.980;2022-12-29T00:10:10;7.00;99.90
10968;DHT22;5536;49.602;10.980;2022-12-29T00:13:08;7.00;99.90
10968;DHT22;5536;49.602;10.980;2022-12-29T00:16:00;7.00;99.90
10968;DHT22;5536;49.602;10.980;2022-12-29T00:18:50;7.00;99.90
10968;DHT22;5536;49.602;10.980;2022-12-29T00:21:41;7.00;99.90
10968;DHT22;5536;49.602;10.980;2022-12-29T00:24:34;7.00;99.90
10968;DHT22;5536;49.602;10.980;2022-12-29T00:27:31;7.00;99.90
10968;DHT22;5536;49.602;10.980;2022-12-29T00:30:18;7.00;99.90
10968;DHT22;5536;49.602;10.980;2022-12-29T00:33:09;7.10;99.90
10968;DHT22;5536;49.602;10.980;2022-12-29T00:36:03;7.10;99.90
10968;DHT22;5536;49.602;10.980;2022-12-29T00:39:05;7.10;99.90
10968;DHT22;5536;49.602;10.980;2022-12-29T00:41:56;7.10;99.90
10968;DHT22;5536;49.602;10.980;2022-12-29T00:44:52;7.00;99.90
10968;DHT22;5536;49.602;10.980;2022-12-29T00:47:30;7.00;99.90
10968;DHT22;5536;49.602;10.980;2022-12-29T00:50:10;7.10;99.90
10968;DHT22;5536;49.602;10.980;2022-12-29T00:52:45;7.10;99.90
10968;DHT22;5536;49.602;10.980;2022-12-29T00:55:19;7.10;99.90
10968;DHT22;5536;49.602;10.980;2022-12-29T00:58:09;7.10;99.90
10968;DHT22;5536;49.602;10.980;2022-12-29T01:01:01;7.20;99.90
10968;DHT22;5536;49.602;10.980;2022-12-29T01:03:42;7.10;99.90
10968;DHT22;5536;49.602;10.980;2022-12-29T01:06:19;7.20;99.90
10968;DHT22;5536;49.602;10.980;2022-12-29T01:08:54;7.20;99.90
10968;DHT22;5536;49.602;10.980;2022-12-29T01:11:43;7.30;99.90
10968;DHT22;5536;49.602;10.980;2022-12-29T01:14:14;7.40;99.90
10968;DHT22;5536;49.602;10.980;2022-12-29T01:17:11;7.30;99.90
10968;DHT22;5536;49.602;10.980;2022-12-29T01:19:41;7.30;99.90
10968;DHT22;5536;49.602;10.980;2022-12-29T01:22:09;7.40;99.90
10968;DHT22;5536;49.602;10.980;2022-12-29T01:24:42;7.40;99.90
10968;DHT22;5536;49.602;10.980;2022-12-29T01:27:27;7.40;99.90
10968;DHT22;5536;49.602;10.980;2022-12-29T01:29:59;7.50;99.90
10968;DHT22;5536;49.602;10.980;2022-12-29T01:32:44;7.50;99.90
10968;DHT22;5536;49.602;10.980;2022-12-29T01:35:20;7.60;99.90
10968;DHT22;5536;49.602;10.980;2022-12-29T01:37:48;7.60;99.90
10968;DHT22;5536;49.602;10.980;2022-12-29T01:40:17;7.70;99.90
10968;DHT22;5536;49.602;10.980;2022-12-29T01:43:07;7.70;99.90
10968;DHT22;5536;49.602;10.980;2022-12-29T01:45:55;7.70;99.90
10968;DHT22;5536;49.602;10.980;2022-12-29T01:48:22;7.80;99.90
10968;DHT22;5536;49.602;10.980;2022-12-29T01:50:57;7.80;99.90
10968;DHT22;5536;49.602;10.980;2022-12-29T01:53:36;7.80;99.90
10968;DHT22;5536;49.602;10.980;2022-12-29T01:56:12;7.80;99.90
10968;DHT22;5536;49.602;10.980;2022-12-29T01:59:34;7.80;99.90
10968;DHT22;5536;49.602;10.980;2022-12-29T02:01:57;7.80;99.90
10968;DHT22;5536;49.602;10.980;2022-12-29T02:05:02;7.80;99.90
10968;DHT22;5536;49.602;10.980;2022-12-29T02:07:48;7.80;99.90
10968;DHT22;5536;49.602;10.980;2022-12-29T02:10:41;7.80;99.90
10968;DHT22;5536;49.602;10.980;2022-12-29T02:13:39;7.70;99.90
10968;DHT22;5536;49.602;10.980;2022-12-29T02:16:58;7.70;99.90
10968;DHT22;5536;49.602;10.980;2022-12-29T02:23:29;7.70;99.90
10968;DHT22;5536;49.602;10.980;2022-12-29T02:26:56;7.60;99.90
10968;DHT22;5536;49.602;10.980;2022-12-29T02:30:08;7.70;99.90
10968;DHT22;5536;49.602;10.980;2022-12-29T02:33:03;7.70;99.90
10968;DHT22;5536;49.602;10.980;2022-12-29T02:35:58;7.70;99.90
10968;DHT22;5536;49.602;10.980;2022-12-29T02:39:02;7.60;99.90
10968;DHT22;5536;49.602;10.980;2022-12-29T02:41:56;7.70;99.90
10968;DHT22;5536;49.602;10.980;2022-12-29T02:44:44;7.70;99.90
10968;DHT22;5536;49.602;10.980;2022-12-29T02:47:54;7.70;99.90
10968;DHT22;5536;49.602;10.980;2022-12-29T02:50:47;7.70;99.90
10968;DHT22;5536;49.602;10.980;2022-12-29T02:53:32;7.60;99.90
10968;DHT22;5536;49.602;10.980;2022-12-29T02:59:10;7.50;99.90
10968;DHT22;5536;49.602;10.980;2022-12-29T03:02:15;7.50;99.90
10968;DHT22;5536;49.602;10.980;2022-12-29T03:05:18;7.50;99.90
10968;DHT22;5536;49.602;10.980;2022-12-29T03:07:57;7.40;99.90
10968;DHT22;5536;49.602;10.980;2022-12-29T03:10:58;7.30;99.90
10968;DHT22;5536;49.602;10.980;2022-12-29T03:13:59;7.40;99.90
10968;DHT22;5536;49.602;10.980;2022-12-29T03:16:59;7.30;99.90
10968;DHT22;5536;49.602;10.980;2022-12-29T03:19:31;7.40;99.90
10968;DHT22;5536;49.602;10.980;2022-12-29T03:22:27;7.40;99.90
10968;DHT22;5536;49.602;10.980;2022-12-29T03:25:07;7.40;99.90
10968;DHT22;5536;49.602;10.980;2022-12-29T03:27:49;7.50;99.90
10968;DHT22;5536;49.602;10.980;2022-12-29T03:30:20;7.50;99.90
10968;DHT22;5536;49.602;10.980;2022-12-29T03:33:00;7.50;99.90
10968;DHT22;5536;49.602;10.980;2022-12-29T03:35:52;7.40;99.90
10968;DHT22;5536;49.602;10.980;2022-12-29T03:38:39;7.40;99.90
10968;DHT22;5536;49.602;10.980;2022-12-29T03:41:14;7.30;99.90
10968;DHT22;5536;49.602;10.980;2022-12-29T03:44:04;7.30;99.90
10968;DHT22;5536;49.602;10.980;2022-12-29T03:46:51;7.30;99.90
10968;DHT22;5536;49.602;10.980;2022-12-29T03:49:25;7.30;99.90
10968;DHT22;5536;49.602;10.980;2022-12-29T03:52:15;7.30;99.90
10968;DHT22;5536;49.602;10.980;2022-12-29T03:54:55;7.40;99.90
10968;DHT22;5536;49.602;10.980;2022-12-29T03:57:47;7.40;99.90
10968;DHT22;5536;49.602;10.980;2022-12-29T04:00:20;7.40;99.90
10968;DHT22;5536;49.602;10.980;2022-12-29T04:03:10;7.50;99.90
10968;DHT22;5536;49.602;10.980;2022-12-29T04:05:40;7.50;99.90
10968;DHT22;5536;49.602;10.980;2022-12-29T04:08:18;7.50;99.90
10968;DHT22;5536;49.602;10.980;2022-12-29T04:11:01;7.60;99.90
10968;DHT22;5536;49.602;10.980;2022-12-29T04:13:32;7.60;99.90
10968;DHT22;5536;49.602;10.980;2022-12-29T04:16:13;7.50;99.90
10968;DHT22;5536;49.602;10.980;2022-12-29T04:18:48;7.50;99.90
10968;DHT22;5536;49.602;10.980;2022-12-29T04:21:27;7.40;99.90
10968;DHT22;5536;49.602;10.980;2022-12-29T04:23:59;7.50;99.90
10968;DHT22;5536;49.602;10.980;2022-12-29T04:26:50;7.50;99.90
10968;DHT22;5536;49.602;10.980;2022-12-29T04:29:31;7.60;99.90
10968;DHT22;5536;49.602;10.980;2022-12-29T04:32:06;7.70;99.90
10968;DHT22;5536;49.602;10.980;2022-12-29T04:34:46;7.60;99.90
10968;DHT22;5536;49.602;10.980;2022-12-29T04:37:20;7.70;99.90
10968;DHT22;5536;49.602;10.980;2022-12-29T04:40:01;7.70;99.90
10968;DHT22;5536;49.602;10.980;2022-12-29T04:42:36;7.80;99.90
10968;DHT22;5536;49.602;10.980;2022-12-29T04:45:12;7.80;99.90
10968;DHT22;5536;49.602;10.980;2022-12-29T04:47:43;7.90;99.90
10968;DHT22;5536;49.602;10.980;2022-12-29T04:50:12;7.80;99.90
10968;DHT22;5536;49.602;10.980;2022-12-29T04:52:43;7.80;99.90
10968;DHT22;5536;49.602;10.980;2022-12-29T04:55:14;7.80;99.90
10968;DHT22;5536;49.602;10.980;2022-12-29T04:58:01;7.70;99.90
10968;DHT22;5536;49.602;10.980;2022-12-29T05:00:44;7.60;99.90
10968;DHT22;5536;49.602;10.980;2022-12-29T05:03:23;7.60;99.90
10968;DHT22;5536;49.602;10.980;2022-12-29T05:05:55;7.60;99.90
10968;DHT22;5536;49.602;10.980;2022-12-29T05:08:34;7.60;99.90
10968;DHT22;5536;49.602;10.980;2022-12-29T05:11:11;7.50;99.90
10968;DHT22;5536;49.602;10.980;2022-12-29T05:14:01;7.50;99.90
10968;DHT22;5536;49.602;10.980;2022-12-29T05:16:31;7.60;99.90
10968;DHT22;5536;49.602;10.980;2022-12-29T05:22:08;7.60;99.90
10968;DHT22;5536;49.602;10.980;2022-12-29T05:24:45;7.60;99.90
10968;DHT22;5536;49.602;10.980;2022-12-29T05:27:20;7.60;99.90
10968;DHT22;5536;49.602;10.980;2022-12-29T05:29:56;7.60;99.90
10968;DHT22;5536;49.602;10.980;2022-12-29T05:32:25;7.60;99.90
10968;DHT22;5536;49.602;10.980;2022-12-29T05:35:05;7.50;99.90
10968;DHT22;5536;49.602;10.980;2022-12-29T05:37:42;7.40;99.90
10968;DHT22;5536;49.602;10.980;2022-12-29T05:40:28;7.40;99.90
10968;DHT22;5536;49.602;10.980;2022-12-29T05:42:58;7.40;99.90
10968;DHT22;5536;49.602;10.980;2022-12-29T05:45:44;7.40;99.90
10968;DHT22;5536;49.602;10.980;2022-12-29T05:48:21;7.30;99.90
10968;DHT22;5536;49.602;10.980;2022-12-29T05:50:50;7.30;99.90
10968;DHT22;5536;49.602;10.980;2022-12-29T05:53:20;7.20;99.90
10968;DHT22;5536;49.602;10.980;2022-12-29T05:55:48;7.10;99.90
10968;DHT22;5536;49.602;10.980;2022-12-29T05:58:20;7.10;99.90
10968;DHT22;5536;49.602;10.980;2022-12-29T06:11:10;7.10;99.90
10968;DHT22;5536;49.602;10.980;2022-12-29T06:17:21;7.20;99.90
10968;DHT22;5536;49.602;10.980;2022-12-29T06:20:10;7.10;99.90
10968;DHT22;5536;49.602;10.980;2022-12-29T06:22:46;7.10;99.90
10968;DHT22;5536;49.602;10.980;2022-12-29T06:25:15;7.10;99.90
10968;DHT22;5536;49.602;10.980;2022-12-29T06:27:57;7.20;99.90
10968;DHT22;5536;49.602;10.980;2022-12-29T06:30:36;7.20;99.90
10968;DHT22;5536;49.602;10.980;2022-12-29T06:33:11;7.10;99.90
10968;DHT22;5536;49.602;10.980;2022-12-29T06:35:50;7.20;99.90
10968;DHT22;5536;49.602;10.980;2022-12-29T06:38:27;7.10;99.90
10968;DHT22;5536;49.602;10.980;2022-12-29T06:41:04;7.00;99.90
10968;DHT22;5536;49.602;10.980;2022-12-29T06:44:13;6.90;99.90
10968;DHT22;5536;49.602;10.980;2022-12-29T06:46:44;6.90;99.90
10968;DHT22;5536;49.602;10.980;2022-12-29T06:49:41;6.90;99.90
10968;DHT22;5536;49.602;10.980;2022-12-29T06:55:02;6.90;99.90
10968;DHT22;5536;49.602;10.980;2022-12-29T06:55:27;6.80;99.90
10968;DHT22;5536;49.602;10.980;2022-12-29T06:58:53;6.80;99.90
10968;DHT22;5536;49.602;10.980;2022-12-29T07:05:22;6.60;99.90
10968;DHT22;5536;49.602;10.980;2022-12-29T07:08:05;6.60;99.90
10968;DHT22;5536;49.602;10.980;2022-12-29T07:15:23;6.70;99.90
10968;DHT22;5536;49.602;10.980;2022-12-29T07:20:53;6.30;99.90
10968;DHT22;5536;49.602;10.980;2022-12-29T07:30:56;6.50;99.90
10968;DHT22;5536;49.602;10.980;2022-12-29T07:34:03;6.30;99.90
10968;DHT22;5536;49.602;10.980;2022-12-29T07:45:42;6.50;99.90
10968;DHT22;5536;49.602;10.980;2022-12-29T07:48:54;6.50;99.90
10968;DHT22;5536;49.602;10.980;2022-12-29T07:51:37;6.90;99.90
10968;DHT22;5536;49.602;10.980;2022-12-29T07:54:26;7.10;99.90
10968;DHT22;5536;49.602;10.980;2022-12-29T07:57:06;7.10;99.90
10968;DHT22;5536;49.602;10.980;2022-12-29T07:59:43;7.20;99.90
10968;DHT22;5536;49.602;10.980;2022-12-29T08:06:14;7.20;99.90
10968;DHT22;5536;49.602;10.980;2022-12-29T08:09:30;7.20;99.90
10968;DHT22;5536;49.602;10.980;2022-12-29T08:12:19;7.20;99.90
10968;DHT22;5536;49.602;10.980;2022-12-29T08:15:01;7.20;99.90
10968;DHT22;5536;49.602;10.980;2022-12-29T08:17:40;7.30;99.90
10968;DHT22;5536;49.602;10.980;2022-12-29T08:20:13;7.40;99.90
10968;DHT22;5536;49.602;10.980;2022-12-29T08:23:04;7.50;99.90
10968;DHT22;5536;49.602;10.980;2022-12-29T08:25:33;7.70;99.90
10968;DHT22;5536;49.602;10.980;2022-12-29T08:28:40;7.80;99.90
10968;DHT22;5536;49.602;10.980;2022-12-29T08:34:34;8.00;99.90
10968;DHT22;5536;49.602;10.980;2022-12-29T08:37:18;8.10;99.90
10968;DHT22;5536;49.602;10.980;2022-12-29T08:40:32;8.10;99.90
10968;DHT22;5536;49.602;10.980;2022-12-29T08:43:11;8.20;99.90
10968;DHT22;5536;49.602;10.980;2022-12-29T08:49:30;8.40;99.90
10968;DHT22;5536;49.602;10.980;2022-12-29T08:52:39;8.50;99.90
10968;DHT22;5536;49.602;10.980;2022-12-29T09:02:35;8.80;99.90
10968;DHT22;5536;49.602;10.980;2022-12-29T09:05:24;8.90;99.90
10968;DHT22;5536;49.602;10.980;2022-12-29T09:08:11;8.90;99.90
10968;DHT22;5536;49.602;10.980;2022-12-29T09:11:16;8.90;99.90
10968;DHT22;5536;49.602;10.980;2022-12-29T09:23:08;9.10;99.90
10968;DHT22;5536;49.602;10.980;2022-12-29T09:49:00;9.70;99.90
10968;DHT22;5536;49.602;10.980;2022-12-29T09:54:40;9.70;99.90
10968;DHT22;5536;49.602;10.980;2022-12-29T09:55:59;9.80;99.90
10968;DHT22;5536;49.602;10.980;2022-12-29T10:22:12;10.50;99.90
10968;DHT22;5536;49.602;10.980;2022-12-29T10:26:42;10.50;99.90
10968;DHT22;5536;49.602;10.980;2022-12-29T10:32:48;10.50;99.90
10968;DHT22;5536;49.602;10.980;2022-12-29T10:43:11;10.90;99.90
10968;DHT22;5536;49.602;10.980;2022-12-29T10:52:28;11.20;99.90
10968;DHT22;5536;49.602;10.980;2022-12-29T10:55:02;11.30;99.90
10968;DHT22;5536;49.602;10.980;2022-12-29T10:57:33;11.30;99.90
10968;DHT22;5536;49.602;10.980;2022-12-29T11:31:49;11.40;99.90
10968;DHT22;5536;49.602;10.980;2022-12-29T11:36:52;11.30;99.90
10968;DHT22;5536;49.602;10.980;2022-12-29T11:39:16;11.30;99.90
10968;DHT22;5536;49.602;10.980;2022-12-29T11:45:18;11.30;99.90
10968;DHT22;5536;49.602;10.980;2022-12-29T12:35:12;11.40;99.90
10968;DHT22;5536;49.602;10.980;2022-12-29T12:38:38;11.40;99.90
10968;DHT22;5536;49.602;10.980;2022-12-29T12:42:47;11.40;99.90
10968;DHT22;5536;49.602;10.980;2022-12-29T12:58:25;11.50;99.90
10968;DHT22;5536;49.602;10.980;2022-12-29T13:01:15;11.50;99.90
10968;DHT22;5536;49.602;10.980;2022-12-29T13:07:11;11.50;99.90
10968;DHT22;5536;49.602;10.980;2022-12-29T13:10:05;11.40;99.90
10968;DHT22;5536;49.602;10.980;2022-12-29T13:12:51;11.50;99.90
10968;DHT22;5536;49.602;10.980;2022-12-29T13:15:56;11.60;99.90
10968;DHT22;5536;49.602;10.980;2022-12-29T13:18:46;11.50;99.90
10968;DHT22;5536;49.602;10.980;2022-12-29T13:21:46;11.50;99.90
10968;DHT22;5536;49.602;10.980;2022-12-29T13:24:27;11.40;99.90
10968;DHT22;5536;49.602;10.980;2022-12-29T13:38:03;11.20;99.90
10968;DHT22;5536;49.602;10.980;2022-12-29T13:40:48;11.30;99.90
10968;DHT22;5536;49.602;10.980;2022-12-29T13:43:41;11.20;99.90
10968;DHT22;5536;49.602;10.980;2022-12-29T13:46:18;11.20;99.90
10968;DHT22;5536;49.602;10.980;2022-12-29T13:48:55;11.10;99.90
10968;DHT22;5536;49.602;10.980;2022-12-29T13:51:48;10.90;99.90
10968;DHT22;5536;49.602;10.980;2022-12-29T13:54:39;10.90;99.90
10968;DHT22;5536;49.602;10.980;2022-12-29T13:57:41;11.00;99.90
10968;DHT22;5536;49.602;10.980;2022-12-29T14:00:23;10.90;99.90
10968;DHT22;5536;49.602;10.980;2022-12-29T14:03:18;10.90;99.90
10968;DHT22;5536;49.602;10.980;2022-12-29T14:06:28;10.80;99.90
10968;DHT22;5536;49.602;10.980;2022-12-29T14:11:54;10.90;99.90
10968;DHT22;5536;49.602;10.980;2022-12-29T14:14:32;10.80;99.90
10968;DHT22;5536;49.602;10.980;2022-12-29T14:17:09;10.80;99.90
10968;DHT22;5536;49.602;10.980;2022-12-29T14:19:39;10.90;99.90
10968;DHT22;5536;49.602;10.980;2022-12-29T14:22:11;11.00;99.90
10968;DHT22;5536;49.602;10.980;2022-12-29T14:24:46;10.90;99.90
10968;DHT22;5536;49.602;10.980;2022-12-29T14:27:55;10.90;99.90
10968;DHT22;5536;49.602;10.980;2022-12-29T14:30:52;10.90;99.90
10968;DHT22;5536;49.602;10.980;2022-12-29T14:34:07;10.80;99.90
10968;DHT22;5536;49.602;10.980;2022-12-29T14:36:35;10.70;99.90
10968;DHT22;5536;49.602;10.980;2022-12-29T14:42:23;10.60;99.90
10968;DHT22;5536;49.602;10.980;2022-12-29T14:48:31;10.20;99.90
10968;DHT22;5536;49.602;10.980;2022-12-29T14:51:35;10.10;99.90
10968;DHT22;5536;49.602;10.980;2022-12-29T14:54:46;10.10;99.90
10968;DHT22;5536;49.602;10.980;2022-12-29T14:57:34;10.00;99.90
10968;DHT22;5536;49.602;10.980;2022-12-29T15:00:17;10.00;99.90
10968;DHT22;5536;49.602;10.980;2022-12-29T15:03:05;9.90;99.90
10968;DHT22;5536;49.602;10.980;2022-12-29T15:05:57;9.80;99.90
10968;DHT22;5536;49.602;10.980;2022-12-29T15:08:28;9.80;99.90
10968;DHT22;5536;49.602;10.980;2022-12-29T15:11:11;9.80;99.90
10968;DHT22;5536;49.602;10.980;2022-12-29T15:13:45;9.80;99.90
10968;DHT22;5536;49.602;10.980;2022-12-29T15:16:36;9.80;99.90
10968;DHT22;5536;49.602;10.980;2022-12-29T15:19:24;9.70;99.90
10968;DHT22;5536;49.602;10.980;2022-12-29T15:22:08;9.70;99.90
10968;DHT22;5536;49.602;10.980;2022-12-29T15:24:41;9.60;99.90
10968;DHT22;5536;49.602;10.980;2022-12-29T15:27:39;9.60;99.90
10968;DHT22;5536;49.602;10.980;2022-12-29T15:30:15;9.50;99.90
10968;DHT22;5536;49.602;10.980;2022-12-29T15:32:52;9.50;99.90
10968;DHT22;5536;49.602;10.980;2022-12-29T15:35:28;9.50;99.90
10968;DHT22;5536;49.602;10.980;2022-12-29T15:38:13;9.60;99.90
10968;DHT22;5536;49.602;10.980;2022-12-29T15:46:52;9.70;99.90
10968;DHT22;5536;49.602;10.980;2022-12-29T15:49:50;9.80;99.90
10968;DHT22;5536;49.602;10.980;2022-12-29T15:52:26;9.90;99.90
10968;DHT22;5536;49.602;10.980;2022-12-29T15:55:24;9.90;99.90
10968;DHT22;5536;49.602;10.980;2022-12-29T15:58:19;9.80;99.90
10968;DHT22;5536;49.602;10.980;2022-12-29T16:00:51;9.90;99.90
10968;DHT22;5536;49.602;10.980;2022-12-29T16:03:24;10.00;99.90
10968;DHT22;5536;49.602;10.980;2022-12-29T16:06:23;10.10;99.90
10968;DHT22;5536;49.602;10.980;2022-12-29T16:09:14;10.10;99.90
10968;DHT22;5536;49.602;10.980;2022-12-29T16:11:54;10.10;99.90
10968;DHT22;5536;49.602;10.980;2022-12-29T16:14:42;10.10;99.90
10968;DHT22;5536;49.602;10.980;2022-12-29T16:17:20;10.20;99.90
10968;DHT22;5536;49.602;10.980;2022-12-29T16:19:51;10.10;99.90
10968;DHT22;5536;49.602;10.980;2022-12-29T16:22:27;10.20;99.90
10968;DHT22;5536;49.602;10.980;2022-12-29T16:25:00;10.20;99.90
10968;DHT22;5536;49.602;10.980;2022-12-29T16:27:44;10.30;99.90
10968;DHT22;5536;49.602;10.980;2022-12-29T16:30:22;10.30;99.90
10968;DHT22;5536;49.602;10.980;2022-12-29T16:32:56;10.30;99.90
10968;DHT22;5536;49.602;10.980;2022-12-29T16:35:25;10.30;99.90
10968;DHT22;5536;49.602;10.980;2022-12-29T16:38:11;10.30;99.90
10968;DHT22;5536;49.602;10.980;2022-12-29T16:40:57;10.30;99.90
10968;DHT22;5536;49.602;10.980;2022-12-29T16:43:44;10.20;99.90
10968;DHT22;5536;49.602;10.980;2022-12-29T16:46:23;10.20;99.90
10968;DHT22;5536;49.602;10.980;2022-12-29T16:49:01;10.20;99.90
10968;DHT22;5536;49.602;10.980;2022-12-29T16:51:38;10.20;99.90
10968;DHT22;5536;49.602;10.980;2022-12-29T16:54:23;10.30;99.90
10968;DHT22;5536;49.602;10.980;2022-12-29T16:57:11;10.40;99.90
10968;DHT22;5536;49.602;10.980;2022-12-29T17:00:05;10.40;99.90
10968;DHT22;5536;49.602;10.980;2022-12-29T17:02:54;10.40;99.90
10968;DHT22;5536;49.602;10.980;2022-12-29T17:05:41;10.50;99.90
10968;DHT22;5536;49.602;10.980;2022-12-29T17:08:43;10.50;99.90
10968;DHT22;5536;49.602;10.980;2022-12-29T17:11:32;10.40;99.90
10968;DHT22;5536;49.602;10.980;2022-12-29T17:14:31;10.40;99.90
10968;DHT22;5536;49.602;10.980;2022-12-29T17:17:32;10.40;99.90
10968;DHT22;5536;49.602;10.980;2022-12-29T17:20:03;10.30;99.90
10968;DHT22;5536;49.602;10.980;2022-12-29T17:22:40;10.30;99.90
10968;DHT22;5536;49.602;10.980;2022-12-29T17:25:15;10.20;99.90
10968;DHT22;5536;49.602;10.980;2022-12-29T17:28:06;10.10;99.90
10968;DHT22;5536;49.602;10.980;2022-12-29T17:30:49;10.10;99.90
10968;DHT22;5536;49.602;10.980;2022-12-29T17:33:42;10.10;99.90
10968;DHT22;5536;49.602;10.980;2022-12-29T17:36:29;10.00;99.90
10968;DHT22;5536;49.602;10.980;2022-12-29T17:40:05;9.90;99.90
10968;DHT22;5536;49.602;10.980;2022-12-29T17:42:11;9.80;99.90
10968;DHT22;5536;49.602;10.980;2022-12-29T17:44:52;9.80;99.90
10968;DHT22;5536;49.602;10.980;2022-12-29T17:51:25;9.60;99.90
10968;DHT22;5536;49.602;10.980;2022-12-29T17:54:27;9.30;99.90
10968;DHT22;5536;49.602;10.980;2022-12-29T17:57:01;9.20;99.90
10968;DHT22;5536;49.602;10.980;2022-12-29T17:59:40;9.10;99.90
10968;DHT22;5536;49.602;10.980;2022-12-29T18:05:31;9.00;99.90
10968;DHT22;5536;49.602;10.980;2022-12-29T18:08:03;9.10;99.90
10968;DHT22;5536;49.602;10.980;2022-12-29T18:10:53;9.00;99.90
10968;DHT22;5536;49.602;10.980;2022-12-29T18:13:23;9.00;99.90
10968;DHT22;5536;49.602;10.980;2022-12-29T18:15:57;8.90;99.90
10968;DHT22;5536;49.602;10.980;2022-12-29T18:18:33;8.90;99.90
10968;DHT22;5536;49.602;10.980;2022-12-29T18:21:15;8.90;99.90
10968;DHT22;5536;49.602;10.980;2022-12-29T18:38:15;8.90;99.90
10968;DHT22;5536;49.602;10.980;2022-12-29T19:38:05;8.70;99.90
10968;DHT22;5536;49.602;10.980;2022-12-29T22:17:14;8.30;99.90
10968;DHT22;5536;49.602;10.980;2022-12-29T22:22:48;8.30;99.90
10968;DHT22;5536;49.602;10.980;2022-12-29T22:25:32;8.30;99.90
10968;DHT22;5536;49.602;10.980;2022-12-29T22:28:12;8.30;99.90
10968;DHT22;5536;49.602;10.980;2022-12-29T22:31:00;8.30;99.90
10968;DHT22;5536;49.602;10.980;2022-12-29T22:34:08;8.30;99.90
10968;DHT22;5536;49.602;10.980;2022-12-29T22:58:21;8.00;99.90
10968;DHT22;5536;49.602;10.980;2022-12-29T23:00:55;8.00;99.90
10968;DHT22;5536;49.602;10.980;2022-12-29T23:03:27;8.10;99.90
10968;DHT22;5536;49.602;10.980;2022-12-29T23:09:02;8.10;99.90
10968;DHT22;5536;49.602;10.980;2022-12-29T23:11:35;8.20;99.90
10968;DHT22;5536;49.602;10.980;2022-12-29T23:14:23;8.20;99.90
10968;DHT22;5536;49.602;10.980;2022-12-29T23:17:04;8.20;99.90
10968;DHT22;5536;49.602;10.980;2022-12-29T23:19:40;8.10;99.90
10968;DHT22;5536;49.602;10.980;2022-12-29T23:22:16;8.10;99.90
10968;DHT22;5536;49.602;10.980;2022-12-29T23:24:50;8.20;99.90
10968;DHT22;5536;49.602;10.980;2022-12-29T23:27:22;8.20;99.90
10968;DHT22;5536;49.602;10.980;2022-12-29T23:29:56;8.30;99.90
10968;DHT22;5536;49.602;10.980;2022-12-29T23:32:24;8.20;99.90
10968;DHT22;5536;49.602;10.980;2022-12-29T23:35:05;8.20;99.90
10968;DHT22;5536;49.602;10.980;2022-12-29T23:37:36;8.30;99.90
10968;DHT22;5536;49.602;10.980;2022-12-29T23:40:15;8.30;99.90
10968;DHT22;5536;49.602;10.980;2022-12-29T23:42:42;8.30;99.90
10968;DHT22;5536;49.602;10.980;2022-12-29T23:45:31;8.30;99.90
10968;DHT22;5536;49.602;10.980;2022-12-29T23:48:03;8.20;99.90
